createdAt,value
2018-11-07T00:02:31.666Z,13.30
2018-11-07T00:05:03.826Z,13.30
2018-11-07T00:07:35.807Z,13.20
2018-11-07T00:10:08.147Z,13.20
2018-11-07T00:12:40.027Z,13.10
2018-11-07T00:15:14.966Z,13.10
2018-11-07T00:17:47.209Z,13.10
2018-11-07T00:20:18.806Z,13.10
2018-11-07T00:22:50.566Z,13.10
2018-11-07T00:25:22.387Z,13.10
2018-11-07T00:27:54.647Z,13.10
2018-11-07T00:30:26.406Z,13.10
2018-11-07T00:32:58.889Z,13.00
2018-11-07T00:35:31.167Z,13.00
2018-11-07T00:38:02.229Z,12.90
2018-11-07T00:40:34.166Z,12.90
2018-11-07T00:43:06.107Z,12.80
2018-11-07T00:45:38.887Z,12.80
2018-11-07T00:48:09.867Z,12.80
2018-11-07T00:50:42.427Z,12.70
2018-11-07T00:53:14.007Z,12.70
2018-11-07T00:55:45.388Z,12.70
2018-11-07T00:58:17.926Z,12.70
2018-11-07T01:00:49.901Z,12.60
2018-11-07T01:03:21.648Z,12.70
2018-11-07T01:05:53.546Z,12.60
2018-11-07T01:08:25.147Z,12.50
2018-11-07T01:10:56.986Z,12.50
2018-11-07T01:13:28.367Z,12.50
2018-11-07T01:16:00.286Z,12.50
2018-11-07T01:18:32.346Z,12.50
2018-11-07T01:21:05.166Z,12.50
2018-11-07T01:23:37.006Z,12.50
2018-11-07T01:26:08.906Z,12.40
2018-11-07T01:28:41.106Z,12.40
2018-11-07T01:31:13.107Z,12.40
2018-11-07T01:33:45.327Z,12.40
2018-11-07T01:36:17.306Z,12.40
2018-11-07T01:38:49.306Z,12.30
2018-11-07T01:41:21.306Z,12.30
2018-11-07T01:43:53.108Z,12.30
2018-11-07T01:46:25.006Z,12.20
2018-11-07T01:48:56.714Z,12.20
2018-11-07T01:51:28.661Z,12.20
2018-11-07T01:54:01.222Z,12.20
2018-11-07T01:56:33.073Z,12.10
2018-11-07T01:59:04.633Z,12.10
2018-11-07T02:01:36.793Z,12.10
2018-11-07T02:04:08.994Z,12.10
2018-11-07T02:06:40.995Z,12.10
2018-11-07T02:09:12.974Z,12.10
2018-11-07T02:11:45.113Z,12.10
2018-11-07T02:14:17.073Z,12.10
2018-11-07T02:16:49.213Z,12.10
2018-11-07T02:19:20.953Z,12.10
2018-11-07T02:21:53.594Z,12.10
2018-11-07T02:24:25.133Z,12.10
2018-11-07T02:26:56.833Z,12.10
2018-11-07T02:29:28.673Z,12.10
2018-11-07T02:32:00.693Z,12.20
2018-11-07T02:34:32.735Z,12.00
2018-11-07T02:37:04.698Z,11.80
2018-11-07T02:39:36.973Z,11.90
2018-11-07T02:42:08.854Z,11.90
2018-11-07T02:44:41.013Z,11.90
2018-11-07T02:47:11.873Z,11.90
2018-11-07T02:49:45.062Z,11.80
2018-11-07T02:52:16.780Z,11.80
2018-11-07T02:54:49.053Z,11.80
2018-11-07T02:57:21.573Z,11.80
2018-11-07T02:59:53.293Z,11.70
2018-11-07T03:02:25.993Z,11.70
2018-11-07T03:04:57.513Z,11.70
2018-11-07T03:07:29.317Z,11.80
2018-11-07T03:10:01.187Z,11.80
2018-11-07T03:12:33.333Z,11.90
2018-11-07T03:15:04.873Z,11.90
2018-11-07T03:17:36.783Z,11.80
2018-11-07T03:20:09.433Z,11.70
2018-11-07T03:22:41.615Z,11.70
2018-11-07T03:25:14.321Z,11.70
2018-11-07T03:27:45.695Z,11.60
2018-11-07T03:30:17.678Z,11.70
2018-11-07T03:32:49.333Z,11.70
2018-11-07T03:35:27.697Z,11.60
2018-11-07T03:37:59.333Z,11.60
2018-11-07T03:40:30.816Z,11.60
2018-11-07T03:43:03.261Z,11.50
2018-11-07T03:45:39.834Z,11.60
2018-11-07T03:48:11.414Z,11.60
2018-11-07T03:50:43.933Z,11.50
2018-11-07T03:53:15.778Z,11.60
2018-11-07T03:55:46.394Z,11.50
2018-11-07T03:58:18.402Z,11.40
2018-11-07T04:00:50.393Z,11.50
2018-11-07T04:03:22.373Z,11.50
2018-11-07T04:05:54.613Z,11.40
2018-11-07T04:08:26.613Z,11.30
2018-11-07T04:10:59.262Z,11.30
2018-11-07T04:13:31.494Z,11.30
2018-11-07T04:16:03.652Z,11.30
2018-11-07T04:18:36.513Z,11.30
2018-11-07T04:21:07.494Z,11.40
2018-11-07T04:23:38.294Z,11.30
2018-11-07T04:26:10.273Z,11.20
2018-11-07T04:28:41.674Z,11.30
2018-11-07T04:31:14.153Z,11.30
2018-11-07T04:33:46.076Z,11.30
2018-11-07T04:36:18.798Z,11.30
2018-11-07T04:38:50.969Z,11.30
2018-11-07T04:41:23.233Z,11.40
2018-11-07T04:43:54.754Z,11.30
2018-11-07T04:46:27.393Z,11.20
2018-11-07T04:48:58.675Z,11.20
2018-11-07T04:51:31.217Z,11.10
2018-11-07T04:54:03.014Z,11.20
2018-11-07T04:56:34.913Z,11.20
2018-11-07T04:59:07.873Z,11.20
2018-11-07T05:01:40.375Z,11.20
2018-11-07T05:04:13.093Z,11.20
2018-11-07T05:06:44.854Z,11.20
2018-11-07T05:09:16.955Z,11.20
2018-11-07T05:11:49.021Z,11.30
2018-11-07T05:14:20.956Z,11.20
2018-11-07T05:16:52.874Z,11.20
2018-11-07T05:19:24.633Z,11.10
2018-11-07T05:21:56.833Z,11.10
2018-11-07T05:24:28.533Z,11.10
2018-11-07T05:27:00.853Z,11.10
2018-11-07T05:29:32.775Z,11.10
2018-11-07T05:32:05.040Z,11.10
2018-11-07T05:34:36.953Z,11.00
2018-11-07T05:37:09.075Z,11.00
2018-11-07T05:39:41.454Z,11.00
2018-11-07T05:42:13.696Z,11.00
2018-11-07T05:44:45.453Z,11.00
2018-11-07T05:47:17.593Z,10.90
2018-11-07T05:49:50.655Z,11.00
2018-11-07T05:52:22.873Z,11.00
2018-11-07T05:54:54.953Z,11.00
2018-11-07T05:57:27.417Z,11.00
2018-11-07T05:59:58.873Z,11.00
2018-11-07T06:02:31.416Z,11.00
2018-11-07T06:05:02.412Z,11.00
2018-11-07T06:07:34.761Z,11.00
2018-11-07T06:10:07.033Z,11.00
2018-11-07T06:12:38.372Z,10.90
2018-11-07T06:15:12.173Z,10.90
2018-11-07T06:17:44.354Z,10.90
2018-11-07T06:20:16.154Z,10.90
2018-11-07T06:22:48.853Z,10.90
2018-11-07T06:25:20.533Z,10.90
2018-11-07T06:27:52.333Z,10.90
2018-11-07T06:30:24.093Z,10.90
2018-11-07T06:32:56.118Z,10.90
2018-11-07T06:35:28.174Z,10.90
2018-11-07T06:38:00.233Z,10.90
2018-11-07T06:40:32.153Z,10.90
2018-11-07T06:43:04.373Z,10.90
2018-11-07T06:45:36.274Z,11.00
2018-11-07T06:48:08.493Z,11.00
2018-11-07T06:50:40.233Z,11.00
2018-11-07T06:53:11.714Z,11.00
2018-11-07T06:55:44.263Z,11.00
2018-11-07T06:58:15.894Z,10.90
2018-11-07T07:00:47.814Z,10.90
2018-11-07T07:03:20.034Z,11.00
2018-11-07T07:05:52.514Z,11.00
2018-11-07T07:08:24.234Z,11.00
2018-11-07T07:10:56.533Z,11.00
2018-11-07T07:13:28.813Z,11.00
2018-11-07T07:16:00.913Z,11.00
2018-11-07T07:18:32.113Z,11.00
2018-11-07T07:21:03.694Z,10.90
2018-11-07T07:23:35.394Z,10.90
2018-11-07T07:26:07.234Z,10.90
2018-11-07T07:28:39.253Z,10.90
2018-11-07T07:31:11.834Z,11.00
2018-11-07T07:33:44.276Z,11.10
2018-11-07T07:36:17.073Z,11.20
2018-11-07T07:38:48.635Z,11.20
2018-11-07T07:41:21.434Z,11.30
2018-11-07T07:43:54.395Z,11.30
2018-11-07T07:46:26.676Z,11.40
2018-11-07T07:48:58.733Z,11.50
2018-11-07T07:51:31.642Z,11.60
2018-11-07T07:54:03.354Z,11.60
2018-11-07T07:56:35.233Z,11.70
2018-11-07T07:59:06.473Z,11.70
2018-11-07T08:01:38.888Z,11.70
2018-11-07T08:04:10.853Z,11.70
2018-11-07T08:06:43.305Z,11.80
2018-11-07T08:09:15.213Z,11.80
2018-11-07T08:11:46.995Z,11.80
2018-11-07T08:14:19.476Z,11.90
2018-11-07T08:16:51.654Z,11.90
2018-11-07T08:19:24.639Z,11.90
2018-11-07T08:21:56.515Z,12.00
2018-11-07T08:24:28.394Z,12.10
2018-11-07T08:27:00.177Z,12.20
2018-11-07T08:29:32.315Z,12.20
2018-11-07T08:32:04.025Z,12.20
2018-11-07T08:34:36.125Z,12.20
2018-11-07T08:37:08.586Z,12.30
2018-11-07T08:39:40.327Z,12.40
2018-11-07T08:42:12.197Z,12.30
2018-11-07T08:44:43.705Z,12.40
2018-11-07T08:47:15.825Z,12.30
2018-11-07T08:49:48.648Z,12.40
2018-11-07T08:52:20.229Z,12.00
2018-11-07T08:54:51.710Z,12.40
2018-11-07T08:57:24.349Z,12.40
2018-11-07T08:59:56.007Z,12.40
2018-11-07T09:02:28.566Z,12.40
2018-11-07T09:04:59.746Z,12.50
2018-11-07T09:07:31.685Z,12.60
2018-11-07T09:10:03.885Z,12.70
2018-11-07T09:12:35.765Z,12.70
2018-11-07T09:15:08.284Z,12.70
2018-11-07T09:17:40.205Z,12.70
2018-11-07T09:20:14.567Z,12.70
2018-11-07T09:22:46.606Z,12.70
2018-11-07T09:25:18.925Z,12.60
2018-11-07T09:27:50.391Z,12.60
2018-11-07T09:30:23.332Z,12.60
2018-11-07T09:32:55.555Z,12.80
2018-11-07T09:35:28.478Z,12.80
2018-11-07T09:38:00.801Z,12.90
2018-11-07T09:40:33.359Z,12.90
2018-11-07T09:43:05.118Z,12.90
2018-11-07T09:45:37.179Z,13.00
2018-11-07T09:48:09.176Z,13.00
2018-11-07T09:50:41.220Z,13.10
2018-11-07T09:53:12.999Z,13.10
2018-11-07T09:55:45.000Z,13.20
2018-11-07T09:58:16.159Z,13.30
2018-11-07T10:00:49.036Z,13.30
2018-11-07T10:03:20.476Z,13.30
2018-11-07T10:05:53.675Z,13.40
2018-11-07T10:08:26.641Z,13.50
2018-11-07T10:10:58.037Z,13.50
2018-11-07T10:13:30.000Z,13.60
2018-11-07T10:16:01.581Z,13.60
2018-11-07T10:18:34.002Z,13.60
2018-11-07T10:21:05.436Z,13.70
2018-11-07T10:23:37.758Z,13.80
2018-11-07T10:26:09.956Z,14.00
2018-11-07T10:28:42.960Z,14.00
2018-11-07T10:31:14.839Z,14.10
2018-11-07T10:33:46.979Z,14.30
2018-11-07T10:36:19.059Z,14.30
2018-11-07T10:38:50.796Z,14.30
2018-11-07T10:41:23.319Z,14.40
2018-11-07T10:43:55.593Z,14.50
2018-11-07T10:46:27.859Z,14.60
2018-11-07T10:48:59.819Z,14.60
2018-11-07T10:51:31.380Z,14.70
2018-11-07T10:54:03.939Z,14.60
2018-11-07T10:56:35.379Z,14.40
2018-11-07T10:59:06.618Z,14.30
2018-11-07T11:01:43.160Z,14.50
2018-11-07T11:04:16.159Z,14.50
2018-11-07T11:06:48.518Z,14.50
2018-11-07T11:09:20.221Z,14.60
2018-11-07T11:11:52.339Z,14.50
2018-11-07T11:14:24.760Z,14.30
2018-11-07T11:16:55.950Z,14.20
2018-11-07T11:19:28.179Z,14.10
2018-11-07T11:21:59.919Z,14.20
2018-11-07T11:24:32.693Z,14.10
2018-11-07T11:27:04.853Z,14.10
2018-11-07T11:29:36.281Z,14.10
2018-11-07T11:32:08.562Z,13.90
2018-11-07T11:34:40.474Z,13.90
2018-11-07T11:37:13.762Z,14.00
2018-11-07T11:39:44.963Z,14.00
2018-11-07T11:42:18.384Z,13.90
2018-11-07T11:44:49.943Z,14.00
2018-11-07T11:47:22.181Z,14.00
2018-11-07T11:49:53.442Z,14.10
2018-11-07T11:52:26.213Z,14.00
2018-11-07T11:54:57.863Z,14.00
2018-11-07T11:57:30.083Z,14.00
2018-11-07T12:00:02.372Z,14.00
2018-11-07T12:02:34.003Z,13.90
2018-11-07T12:05:05.944Z,14.00
2018-11-07T12:07:38.121Z,14.00
2018-11-07T12:10:15.983Z,14.10
2018-11-07T12:12:50.246Z,14.10
2018-11-07T12:15:23.116Z,14.20
2018-11-07T12:17:56.482Z,14.10
2018-11-07T12:20:27.809Z,14.00
2018-11-07T12:22:58.883Z,14.00
2018-11-07T12:25:30.723Z,14.00
2018-11-07T12:28:02.923Z,14.00
2018-11-07T12:30:35.234Z,13.90
2018-11-07T12:33:08.128Z,13.90
2018-11-07T12:35:40.473Z,13.90
2018-11-07T12:38:12.973Z,13.90
2018-11-07T12:40:45.633Z,13.90
2018-11-07T12:43:17.858Z,13.90
2018-11-07T12:45:49.860Z,13.90
2018-11-07T12:48:22.110Z,14.00
2018-11-07T12:50:54.119Z,14.00
2018-11-07T12:53:24.411Z,14.00
2018-11-07T12:55:55.570Z,14.10
2018-11-07T12:58:28.311Z,14.10
2018-11-07T13:00:59.493Z,14.00
2018-11-07T13:03:32.069Z,13.90
2018-11-07T13:06:03.693Z,13.90
2018-11-07T13:08:36.210Z,13.80
2018-11-07T13:11:07.304Z,13.90
2018-11-07T13:13:39.572Z,14.00
2018-11-07T13:16:11.353Z,14.00
2018-11-07T13:18:43.530Z,14.10
2018-11-07T13:21:14.711Z,14.20
2018-11-07T13:23:47.581Z,14.20
2018-11-07T13:26:20.645Z,14.10
2018-11-07T13:28:52.008Z,14.00
2018-11-07T13:31:24.043Z,14.00
2018-11-07T13:33:56.313Z,14.00
2018-11-07T13:36:29.184Z,14.10
2018-11-07T13:39:00.933Z,14.10
2018-11-07T13:41:32.950Z,14.00
2018-11-07T13:44:04.851Z,14.00
2018-11-07T13:46:38.422Z,14.10
2018-11-07T13:49:09.857Z,14.00
2018-11-07T13:51:41.030Z,14.10
2018-11-07T13:54:12.095Z,14.20
2018-11-07T13:56:44.016Z,14.20
2018-11-07T13:59:15.323Z,14.30
2018-11-07T14:01:46.816Z,14.40
2018-11-07T14:04:18.807Z,14.50
2018-11-07T14:06:50.125Z,14.60
2018-11-07T14:09:21.484Z,14.70
2018-11-07T14:11:53.200Z,14.80
2018-11-07T14:14:25.341Z,14.70
2018-11-07T14:16:57.360Z,14.80
2018-11-07T14:19:29.313Z,14.70
2018-11-07T14:22:02.587Z,14.20
2018-11-07T14:24:34.029Z,14.80
2018-11-07T14:27:07.219Z,14.80
2018-11-07T14:29:39.220Z,14.80
2018-11-07T14:32:10.999Z,14.90
2018-11-07T14:34:42.399Z,14.90
2018-11-07T14:37:14.440Z,14.90
2018-11-07T14:39:45.939Z,14.90
2018-11-07T14:42:17.740Z,14.90
2018-11-07T14:44:49.689Z,14.90
2018-11-07T14:47:21.891Z,15.00
2018-11-07T14:49:53.424Z,15.00
2018-11-07T14:52:25.743Z,15.10
2018-11-07T14:54:58.757Z,15.10
2018-11-07T14:57:30.957Z,15.20
2018-11-07T15:00:02.989Z,15.20
2018-11-07T15:02:34.712Z,15.10
2018-11-07T15:05:06.470Z,15.10
2018-11-07T15:07:38.550Z,15.00
2018-11-07T15:10:11.598Z,15.00
2018-11-07T15:12:45.048Z,15.00
2018-11-07T15:15:16.675Z,14.90
2018-11-07T15:17:49.297Z,14.90
2018-11-07T15:20:20.560Z,14.80
2018-11-07T15:22:52.160Z,14.80
2018-11-07T15:25:24.012Z,14.80
2018-11-07T15:27:56.730Z,14.80
2018-11-07T15:30:28.822Z,14.80
2018-11-07T15:33:00.401Z,14.80
2018-11-07T15:35:31.721Z,14.80
2018-11-07T15:38:04.141Z,14.80
2018-11-07T15:40:35.761Z,14.80
2018-11-07T15:43:08.305Z,14.70
2018-11-07T15:45:39.641Z,14.70
2018-11-07T15:48:12.042Z,14.70
2018-11-07T15:50:48.321Z,14.70
2018-11-07T15:53:19.923Z,14.70
2018-11-07T15:55:51.621Z,14.60
2018-11-07T15:58:24.342Z,14.60
2018-11-07T16:00:56.245Z,14.60
2018-11-07T16:03:32.461Z,14.50
2018-11-07T16:06:04.823Z,14.50
2018-11-07T16:08:36.703Z,14.40
2018-11-07T16:11:08.840Z,14.30
2018-11-07T16:13:40.383Z,14.30
2018-11-07T16:16:11.883Z,14.20
2018-11-07T16:18:43.481Z,14.20
2018-11-07T16:21:16.301Z,14.20
2018-11-07T16:23:48.588Z,14.20
2018-11-07T16:26:20.684Z,14.20
2018-11-07T16:28:53.324Z,14.10
2018-11-07T16:31:24.772Z,14.10
2018-11-07T16:33:56.841Z,14.10
2018-11-07T16:36:28.521Z,14.20
2018-11-07T16:39:01.485Z,14.10
2018-11-07T16:41:33.128Z,14.10
2018-11-07T16:44:06.223Z,14.00
2018-11-07T16:46:38.121Z,14.00
2018-11-07T16:49:10.622Z,14.00
2018-11-07T16:51:42.284Z,14.00
2018-11-07T16:54:17.620Z,14.00
2018-11-07T16:56:49.200Z,13.90
2018-11-07T16:59:22.123Z,13.90
2018-11-07T17:01:54.142Z,13.80
2018-11-07T17:04:26.416Z,13.80
2018-11-07T17:06:58.555Z,13.80
2018-11-07T17:09:30.702Z,13.80
2018-11-07T17:12:02.922Z,13.80
2018-11-07T17:14:34.501Z,13.70
2018-11-07T17:17:07.142Z,13.70
2018-11-07T17:19:39.382Z,13.70
2018-11-07T17:22:11.863Z,13.70
2018-11-07T17:24:44.312Z,13.80
2018-11-07T17:27:15.721Z,13.80
2018-11-07T17:29:47.641Z,13.70
2018-11-07T17:32:19.681Z,13.70
2018-11-07T17:34:51.761Z,13.70
2018-11-07T17:37:23.561Z,13.70
2018-11-07T17:39:56.301Z,13.70
2018-11-07T17:42:28.021Z,13.70
2018-11-07T17:45:00.001Z,13.70
2018-11-07T17:47:31.228Z,13.60
2018-11-07T17:50:04.380Z,13.60
2018-11-07T17:52:36.445Z,13.60
2018-11-07T17:55:07.980Z,13.50
2018-11-07T17:57:40.841Z,13.50
2018-11-07T18:00:27.843Z,13.40
2018-11-07T18:03:00.848Z,13.40
2018-11-07T18:05:32.243Z,13.40
2018-11-07T18:08:03.821Z,13.30
2018-11-07T18:10:35.741Z,13.30
2018-11-07T18:13:07.640Z,13.20
2018-11-07T18:15:39.482Z,13.20
2018-11-07T18:18:10.962Z,13.20
2018-11-07T18:20:43.020Z,13.20
2018-11-07T18:23:15.660Z,13.10
2018-11-07T18:25:48.860Z,13.10
2018-11-07T18:28:20.623Z,13.10
2018-11-07T18:30:52.620Z,13.00
2018-11-07T18:33:25.367Z,13.00
2018-11-07T18:35:57.281Z,12.90
2018-11-07T18:38:29.495Z,12.90
2018-11-07T18:41:00.943Z,12.90
2018-11-07T18:43:34.158Z,12.80
2018-11-07T18:46:06.721Z,12.80
2018-11-07T18:48:38.540Z,12.70
2018-11-07T18:51:10.380Z,12.80
2018-11-07T18:53:42.860Z,12.70
2018-11-07T18:56:16.141Z,12.60
2018-11-07T18:58:49.567Z,12.70
2018-11-07T19:01:22.220Z,12.70
2018-11-07T19:03:54.061Z,12.70
2018-11-07T19:06:25.093Z,12.70
2018-11-07T19:08:57.301Z,12.60
2018-11-07T19:11:29.701Z,12.60
2018-11-07T19:14:01.200Z,12.50
2018-11-07T19:16:32.801Z,12.50
2018-11-07T19:19:05.101Z,12.40
2018-11-07T19:21:36.781Z,12.40
2018-11-07T19:24:08.522Z,12.40
2018-11-07T19:26:40.437Z,12.40
2018-11-07T19:29:12.780Z,12.40
2018-11-07T19:31:44.446Z,12.30
2018-11-07T19:34:17.100Z,12.30
2018-11-07T19:36:49.821Z,12.30
2018-11-07T19:39:21.697Z,12.30
2018-11-07T19:41:53.101Z,12.30
2018-11-07T19:44:26.700Z,12.30
2018-11-07T19:46:59.274Z,12.20
2018-11-07T19:49:31.442Z,12.20
2018-11-07T19:52:03.180Z,12.30
2018-11-07T19:54:35.562Z,12.30
2018-11-07T19:57:07.321Z,12.30
2018-11-07T19:59:40.301Z,12.30
2018-11-07T20:02:12.080Z,12.30
2018-11-07T20:04:44.880Z,12.30
2018-11-07T20:07:16.161Z,12.30
2018-11-07T20:09:49.120Z,12.30
2018-11-07T20:12:20.960Z,12.40
2018-11-07T20:14:52.821Z,12.40
2018-11-07T20:17:24.761Z,12.40
2018-11-07T20:19:58.240Z,12.40
2018-11-07T20:22:29.727Z,12.40
2018-11-07T20:25:02.141Z,12.40
2018-11-07T20:27:33.680Z,12.40
2018-11-07T20:30:05.741Z,12.50
2018-11-07T20:32:36.941Z,12.50
2018-11-07T20:35:15.122Z,12.50
2018-11-07T20:37:47.660Z,12.50
2018-11-07T20:40:21.265Z,12.50
2018-11-07T20:42:54.100Z,12.50
2018-11-07T20:45:25.662Z,12.60
2018-11-07T20:47:57.082Z,12.60
2018-11-07T20:50:28.561Z,12.60
2018-11-07T20:52:59.659Z,12.60
2018-11-07T20:55:32.040Z,12.70
2018-11-07T20:58:05.706Z,12.70
2018-11-07T21:00:37.723Z,12.70
2018-11-07T21:03:10.382Z,12.70
2018-11-07T21:05:42.540Z,12.70
2018-11-07T21:08:15.020Z,12.70
2018-11-07T21:10:47.202Z,12.70
2018-11-07T21:13:18.408Z,12.70
2018-11-07T21:15:50.601Z,12.70
2018-11-07T21:18:23.020Z,12.70
2018-11-07T21:20:54.682Z,12.70
2018-11-07T21:23:27.285Z,12.70
2018-11-07T21:25:59.180Z,12.70
2018-11-07T21:28:30.800Z,12.70
2018-11-07T21:31:02.896Z,12.70
2018-11-07T21:33:34.820Z,12.70
2018-11-07T21:36:06.561Z,12.60
2018-11-07T21:38:38.780Z,12.70
2018-11-07T21:41:10.540Z,12.60
2018-11-07T21:43:44.027Z,12.60
2018-11-07T21:46:16.240Z,12.60
2018-11-07T21:48:48.740Z,12.60
2018-11-07T21:51:20.141Z,12.60
2018-11-07T21:53:52.880Z,12.60
2018-11-07T21:56:24.240Z,12.70
2018-11-07T21:58:56.564Z,12.70
2018-11-07T22:01:28.640Z,12.70
2018-11-07T22:04:00.420Z,12.70
2018-11-07T22:06:32.440Z,12.70
2018-11-07T22:09:05.242Z,12.70
2018-11-07T22:11:37.060Z,12.70
2018-11-07T22:14:08.742Z,12.70
2018-11-07T22:16:41.060Z,12.70
2018-11-07T22:19:13.501Z,12.60
2018-11-07T22:21:45.220Z,12.70
2018-11-07T22:24:18.292Z,12.70
2018-11-07T22:26:50.581Z,12.60
2018-11-07T22:29:23.100Z,12.70
2018-11-07T22:31:55.162Z,12.70
2018-11-07T22:34:27.141Z,12.70
2018-11-07T22:36:58.600Z,12.70
2018-11-07T22:39:30.720Z,12.70
2018-11-07T22:42:02.640Z,12.60
2018-11-07T22:44:34.722Z,12.70
2018-11-07T22:47:06.241Z,12.70
2018-11-07T22:49:38.182Z,12.70
2018-11-07T22:52:10.840Z,12.70
2018-11-07T22:54:41.799Z,12.70
2018-11-07T22:57:13.821Z,12.70
2018-11-07T22:59:45.421Z,12.70
2018-11-07T23:02:17.621Z,12.60
2018-11-07T23:04:50.001Z,12.60
2018-11-07T23:07:22.501Z,12.60
2018-11-07T23:09:55.061Z,12.60
2018-11-07T23:12:27.022Z,12.60
2018-11-07T23:14:59.341Z,12.60
2018-11-07T23:17:31.301Z,12.60
2018-11-07T23:20:03.063Z,12.50
2018-11-07T23:22:34.664Z,12.60
2018-11-07T23:25:07.461Z,12.60
2018-11-07T23:27:39.502Z,12.60
2018-11-07T23:30:11.360Z,12.60
2018-11-07T23:32:43.463Z,12.70
2018-11-07T23:35:15.021Z,12.70
2018-11-07T23:37:46.600Z,12.70
2018-11-07T23:40:18.298Z,12.70
2018-11-07T23:42:50.978Z,12.80
2018-11-07T23:45:22.457Z,12.80
2018-11-07T23:47:55.118Z,12.80
2018-11-07T23:50:26.597Z,12.80
2018-11-07T23:52:58.198Z,12.90
2018-11-07T23:55:30.457Z,12.80
2018-11-07T23:58:02.778Z,12.80
